Time,TemperatureF,DewpointF,PressureIn,WindDirection,WindDirectionDegrees,WindSpeedMPH,WindSpeedGustMPH,Humidity,HourlyPrecipIn,Conditions,Clouds,dailyrainin,SoftwareType,DateUTC
2013-09-08 00:00:00,72.7,61.5,28.07,SW,225,0.0,2.0,68,0.00,CLR,CLR,0.00,WeatherDisplay:10.37,2013-09-07 21:00:00,
2013-09-08 00:10:00,72.4,62.0,28.07,SW,225,1.0,2.0,70,0.00,CLR,CLR,0.00,WeatherDisplay:10.37,2013-09-07 21:10:00,
2013-09-08 00:20:00,72.4,61.7,28.07,SW,225,1.0,2.0,69,0.00,CLR,CLR,0.00,WeatherDisplay:10.37,2013-09-07 21:20:00,
2013-09-08 00:30:00,72.5,61.7,28.07,SW,225,1.0,3.0,69,0.00,CLR,CLR,0.00,WeatherDisplay:10.37,2013-09-07 21:30:00,
2013-09-08 00:40:00,73.1,62.3,28.07,SW,225,0.0,3.0,69,0.00,CLR,CLR,0.00,WeatherDisplay:10.37,2013-09-07 21:40:00,
2013-09-08 00:50:00,73.9,63.1,28.07,SW,225,0.0,0.0,69,0.00,CLR,CLR,0.00,WeatherDisplay:10.37,2013-09-07 21:50:00,
2013-09-08 01:00:00,73.2,62.8,28.07,SW,225,1.0,2.0,70,0.00,CLR,CLR,0.00,WeatherDisplay:10.37,2013-09-07 22:00:00,
2013-09-08 01:10:00,72.9,63.7,28.07,SW,225,1.0,3.0,73,0.00,CLR,CLR,0.00,WeatherDisplay:10.37,2013-09-07 22:10:00,
2013-09-08 01:20:00,72.9,64.1,28.07,SW,225,1.0,2.0,74,0.00,CLR,CLR,0.00,WeatherDisplay:10.37,2013-09-07 22:20:00,
2013-09-08 01:30:00,72.4,63.6,28.07,SW,225,1.0,2.0,74,0.00,CLR,CLR,0.00,WeatherDisplay:10.37,2013-09-07 22:30:00,
2013-09-08 01:40:00,72.1,63.4,28.07,SW,225,1.0,2.0,74,0.00,CLR,CLR,0.00,WeatherDisplay:10.37,2013-09-07 22:40:00,
2013-09-08 01:50:00,72.0,63.2,28.06,SW,225,1.0,3.0,74,0.00,CLR,CLR,0.00,WeatherDisplay:10.37,2013-09-07 22:50:00,
2013-09-08 02:00:00,71.7,62.9,28.06,SW,225,1.0,2.0,74,0.00,CLR,CLR,0.00,WeatherDisplay:10.37,2013-09-07 23:00:00,
2013-09-08 02:10:00,71.6,62.9,28.07,SW,225,0.0,2.0,74,0.00,CLR,CLR,0.00,WeatherDisplay:10.37,2013-09-07 23:10:00,
2013-09-08 02:20:00,71.6,62.5,28.07,SW,225,0.0,2.0,73,0.00,CLR,CLR,0.00,WeatherDisplay:10.37,2013-09-07 23:20:00,
2013-09-08 02:30:00,72.1,63.4,28.07,SW,225,1.0,2.0,74,0.00,CLR,CLR,0.00,WeatherDisplay:10.37,2013-09-07 23:30:00,
2013-09-08 02:40:00,72.5,63.7,28.07,SW,225,0.0,2.0,74,0.00,CLR,CLR,0.00,WeatherDisplay:10.37,2013-09-07 23:40:00,
2013-09-08 02:50:00,72.6,63.8,28.07,SW,225,1.0,2.0,74,0.00,CLR,CLR,0.00,WeatherDisplay:10.37,2013-09-07 23:50:00,
2013-09-08 03:00:00,72.7,63.5,28.07,SW,225,0.0,2.0,73,0.00,CLR,CLR,0.00,WeatherDisplay:10.37,2013-09-08 00:00:00,
2013-09-08 03:10:00,72.3,63.2,28.06,SW,225,0.0,1.0,73,0.00,CLR,CLR,0.00,WeatherDisplay:10.37,2013-09-08 00:10:00,
2013-09-08 03:20:00,72.0,62.8,28.07,SW,225,0.0,1.0,73,0.00,CLR,CLR,0.00,WeatherDisplay:10.37,2013-09-08 00:20:00,
2013-09-08 03:30:00,71.5,62.8,28.07,SW,225,0.0,2.0,74,0.00,CLR,CLR,0.00,WeatherDisplay:10.37,2013-09-08 00:30:00,
2013-09-08 03:40:00,71.8,63.0,28.07,SW,225,0.0,2.0,74,0.00,CLR,CLR,0.00,WeatherDisplay:10.37,2013-09-08 00:40:00,
2013-09-08 03:50:00,71.6,62.9,28.07,SW,225,0.0,2.0,74,0.00,CLR,CLR,0.00,WeatherDisplay:10.37,2013-09-08 00:50:00,
2013-09-08 04:00:00,71.3,62.5,28.07,SW,225,0.0,2.0,74,0.00,CLR,CLR,0.00,WeatherDisplay:10.37,2013-09-08 01:00:00,
2013-09-08 04:10:00,71.4,62.7,28.06,SW,225,0.0,2.0,74,0.00,CLR,CLR,0.00,WeatherDisplay:10.37,2013-09-08 01:10:00,
2013-09-08 04:20:00,71.2,62.5,28.07,SW,225,0.0,3.0,74,0.00,CLR,CLR,0.00,WeatherDisplay:10.37,2013-09-08 01:20:00,
2013-09-08 04:30:00,71.1,62.4,28.07,SW,225,1.0,3.0,74,0.00,CLR,CLR,0.00,WeatherDisplay:10.37,2013-09-08 01:30:00,
2013-09-08 04:40:00,70.7,62.0,28.07,SW,225,0.0,2.0,74,0.00,CLR,CLR,0.00,WeatherDisplay:10.37,2013-09-08 01:40:00,
2013-09-08 04:50:00,70.9,62.2,28.07,SW,225,1.0,3.0,74,0.00,CLR,CLR,0.00,WeatherDisplay:10.37,2013-09-08 01:50:00,
2013-09-08 05:00:00,71.2,62.4,28.07,SW,225,0.0,3.0,74,0.00,CLR,CLR,0.00,WeatherDisplay:10.37,2013-09-08 02:00:00,
2013-09-08 05:10:00,73.3,60.4,28.07,SW,225,3.0,8.0,64,0.00,CLR,CLR,0.00,WeatherDisplay:10.37,2013-09-08 02:10:00,
2013-09-08 05:20:00,74.8,57.6,28.07,WSW,242,2.0,10.0,55,0.00,CLR,CLR,0.00,WeatherDisplay:10.37,2013-09-08 02:20:00,
2013-09-08 05:30:00,75.7,56.9,28.07,WSW,248,1.0,9.0,52,0.00,CLR,CLR,0.00,WeatherDisplay:10.37,2013-09-08 02:30:00,
2013-09-08 05:40:00,75.4,57.1,28.07,WSW,248,3.0,7.0,53,0.00,CLR,CLR,0.00,WeatherDisplay:10.37,2013-09-08 02:40:00,
2013-09-08 05:50:00,75.3,57.5,28.07,WSW,248,3.0,8.0,54,0.00,CLR,CLR,0.00,WeatherDisplay:10.37,2013-09-08 02:50:00,
2013-09-08 06:00:00,76.2,57.3,28.08,WSW,248,6.0,10.0,52,0.00,CLR,CLR,0.00,WeatherDisplay:10.37,2013-09-08 03:00:00,
2013-09-08 06:10:00,76.3,57.9,28.08,WSW,248,1.0,10.0,53,0.00,CLR,CLR,0.00,WeatherDisplay:10.37,2013-09-08 03:10:00,
2013-09-08 06:20:00,75.8,57.9,28.08,WSW,248,0.0,4.0,54,0.00,CLR,CLR,0.00,WeatherDisplay:10.37,2013-09-08 03:20:00,
2013-09-08 06:30:00,75.0,57.8,28.08,WSW,248,2.0,5.0,55,0.00,CLR,CLR,0.00,WeatherDisplay:10.37,2013-09-08 03:30:00,
2013-09-08 06:40:00,75.4,57.1,28.08,WSW,248,3.0,10.0,53,0.00,CLR,CLR,0.00,WeatherDisplay:10.37,2013-09-08 03:40:00,
2013-09-08 06:50:00,75.7,57.4,28.08,WSW,248,2.0,10.0,53,0.00,CLR,CLR,0.00,WeatherDisplay:10.37,2013-09-08 03:50:00,
2013-09-08 07:00:00,75.7,57.4,28.09,WSW,248,2.0,11.0,53,0.00,CLR,CLR,0.00,WeatherDisplay:10.37,2013-09-08 04:00:00,
2013-09-08 07:10:00,76.4,57.5,28.09,WSW,248,6.0,13.0,52,0.00,CLR,CLR,0.00,WeatherDisplay:10.37,2013-09-08 04:10:00,
2013-09-08 07:20:00,76.6,58.2,28.09,WSW,255,8.0,14.0,53,0.00,CLR,CLR,0.00,WeatherDisplay:10.37,2013-09-08 04:20:00,
2013-09-08 07:30:00,76.8,58.9,28.09,West,270,2.0,14.0,54,0.00,CLR,CLR,0.00,WeatherDisplay:10.37,2013-09-08 04:30:00,
2013-09-08 07:40:00,76.8,57.9,28.10,West,270,5.0,13.0,52,0.00,CLR,CLR,0.00,WeatherDisplay:10.37,2013-09-08 04:40:00,
2013-09-08 07:50:00,77.0,58.0,28.10,West,270,5.0,13.0,52,0.00,CLR,CLR,0.00,WeatherDisplay:10.37,2013-09-08 04:50:00,
2013-09-08 08:00:00,77.4,57.3,28.10,West,270,5.0,13.0,50,0.00,CLR,CLR,0.00,WeatherDisplay:10.37,2013-09-08 05:00:00,
2013-09-08 08:10:00,79.1,57.7,28.11,West,270,3.0,13.0,48,0.00,CLR,CLR,0.00,WeatherDisplay:10.37,2013-09-08 05:10:00,
2013-09-08 08:20:00,80.1,57.4,28.11,West,270,3.0,15.0,46,0.00,CLR,CLR,0.00,WeatherDisplay:10.37,2013-09-08 05:20:00,
2013-09-08 08:30:00,81.3,56.7,28.11,West,268,6.0,12.0,43,0.00,CLR,CLR,0.00,WeatherDisplay:10.37,2013-09-08 05:30:00,
2013-09-08 08:40:00,82.6,57.9,28.11,West,270,2.0,10.0,43,0.00,CLR,CLR,0.00,WeatherDisplay:10.37,2013-09-08 05:40:00,
2013-09-08 08:50:00,83.5,58.0,28.11,WSW,244,3.0,11.0,42,0.00,CLR,CLR,0.00,WeatherDisplay:10.37,2013-09-08 05:50:00,
2013-09-08 09:00:00,83.4,57.9,28.11,South,180,6.0,14.0,42,0.00,CLR,CLR,0.00,WeatherDisplay:10.37,2013-09-08 06:00:00,
2013-09-08 09:10:00,83.2,58.3,28.11,SE,135,7.0,17.0,43,0.00,CLR,CLR,0.00,WeatherDisplay:10.37,2013-09-08 06:10:00,
2013-09-08 09:20:00,83.3,58.5,28.12,ESE,116,8.0,15.0,43,0.00,CLR,CLR,0.00,WeatherDisplay:10.37,2013-09-08 06:20:00,
2013-09-08 09:30:00,83.8,58.9,28.11,East,90,2.0,17.0,43,0.00,CLR,CLR,0.00,WeatherDisplay:10.37,2013-09-08 06:30:00,
2013-09-08 09:40:00,85.4,58.3,28.12,East,90,3.0,13.0,40,0.00,CLR,CLR,0.00,WeatherDisplay:10.37,2013-09-08 06:40:00,
2013-09-08 09:50:00,86.6,58.0,28.12,East,90,5.0,10.0,38,0.00,CLR,CLR,0.00,WeatherDisplay:10.37,2013-09-08 06:50:00,
2013-09-08 10:00:00,87.5,58.1,28.13,ENE,69,3.0,10.0,37,0.00,CLR,CLR,0.00,WeatherDisplay:10.37,2013-09-08 07:00:00,
2013-09-08 10:10:00,87.4,57.9,28.13,NE,46,3.0,12.0,37,0.00,CLR,CLR,0.00,WeatherDisplay:10.37,2013-09-08 07:10:00,
2013-09-08 10:20:00,86.9,57.5,28.13,NE,45,3.0,21.0,37,0.00,CLR,CLR,0.00,WeatherDisplay:10.37,2013-09-08 07:20:00,
2013-09-08 10:30:00,86.6,58.0,28.13,NNE,22,3.0,15.0,38,0.00,CLR,CLR,0.00,WeatherDisplay:10.37,2013-09-08 07:30:00,
2013-09-08 10:40:00,86.6,58.7,28.13,NNW,346,3.0,13.0,39,0.00,CLR,CLR,0.00,WeatherDisplay:10.37,2013-09-08 07:40:00,
2013-09-08 10:50:00,87.3,58.6,28.13,NNW,338,5.0,15.0,38,0.00,CLR,CLR,0.00,WeatherDisplay:10.37,2013-09-08 07:50:00,
2013-09-08 11:00:00,87.6,58.1,28.13,NNW,338,6.0,10.0,37,0.00,CLR,CLR,0.00,WeatherDisplay:10.37,2013-09-08 08:00:00,
2013-09-08 11:10:00,87.6,58.9,28.13,NW,315,2.0,13.0,38,0.00,CLR,CLR,0.00,WeatherDisplay:10.37,2013-09-08 08:10:00,
2013-09-08 11:20:00,88.5,58.9,28.13,NW,315,2.0,13.0,37,0.00,CLR,CLR,0.00,WeatherDisplay:10.37,2013-09-08 08:20:00,
2013-09-08 11:30:00,90.0,59.4,28.13,NW,315,2.0,9.0,36,0.00,CLR,CLR,0.00,WeatherDisplay:10.37,2013-09-08 08:30:00,
2013-09-08 11:40:00,90.7,58.5,28.13,NW,315,2.0,12.0,34,0.00,CLR,CLR,0.00,WeatherDisplay:10.37,2013-09-08 08:40:00,
2013-09-08 11:50:00,90.9,59.4,28.13,NW,315,2.0,13.0,35,0.00,CLR,CLR,0.00,WeatherDisplay:10.37,2013-09-08 08:50:00,
2013-09-08 12:00:00,91.0,60.3,28.13,NW,315,2.0,11.0,36,0.00,CLR,CLR,0.00,WeatherDisplay:10.37,2013-09-08 09:00:00,
2013-09-08 12:10:00,90.3,59.7,28.13,NW,315,6.0,11.0,36,0.00,CLR,CLR,0.00,WeatherDisplay:10.37,2013-09-08 09:10:00,
2013-09-08 12:20:00,92.0,58.7,28.13,NW,315,3.0,9.0,33,0.00,CLR,CLR,0.00,WeatherDisplay:10.37,2013-09-08 09:20:00,
2013-09-08 12:30:00,91.1,58.0,28.13,NW,315,5.0,12.0,33,0.00,CLR,CLR,0.00,WeatherDisplay:10.37,2013-09-08 09:30:00,
2013-09-08 12:40:00,90.1,59.6,28.13,NW,315,2.0,13.0,36,0.00,CLR,CLR,0.00,WeatherDisplay:10.37,2013-09-08 09:40:00,
2013-09-08 12:50:00,90.0,59.4,28.12,NW,315,6.0,14.0,36,0.00,CLR,CLR,0.00,WeatherDisplay:10.37,2013-09-08 09:50:00,
2013-09-08 13:00:00,89.2,59.6,28.13,NW,315,3.0,13.0,37,0.00,CLR,CLR,0.00,WeatherDisplay:10.37,2013-09-08 10:00:00,
2013-09-08 13:10:00,90.0,59.5,28.13,NW,315,5.0,13.0,36,0.00,CLR,CLR,0.00,WeatherDisplay:10.37,2013-09-08 10:10:00,
2013-09-08 13:20:00,89.8,60.0,28.12,NW,315,6.0,14.0,37,0.00,CLR,CLR,0.00,WeatherDisplay:10.37,2013-09-08 10:20:00,
2013-09-08 13:30:00,89.8,60.0,28.12,NW,315,6.0,13.0,37,0.00,CLR,CLR,0.00,WeatherDisplay:10.37,2013-09-08 10:30:00,
2013-09-08 13:40:00,89.8,60.0,28.11,NW,315,3.0,16.0,37,0.00,CLR,CLR,0.00,WeatherDisplay:10.37,2013-09-08 10:40:00,
2013-09-08 13:50:00,91.7,59.3,28.12,NW,315,5.0,13.0,34,0.00,CLR,CLR,0.00,WeatherDisplay:10.37,2013-09-08 10:50:00,
2013-09-08 14:00:00,90.0,59.5,28.12,NW,315,7.0,17.0,36,0.00,CLR,CLR,0.00,WeatherDisplay:10.37,2013-09-08 11:00:00,
2013-09-08 14:10:00,90.4,59.1,28.12,NW,315,9.0,15.0,35,0.00,CLR,CLR,0.00,WeatherDisplay:10.37,2013-09-08 11:10:00,
2013-09-08 14:20:00,89.7,59.2,28.11,NW,315,7.0,15.0,36,0.00,CLR,CLR,0.00,WeatherDisplay:10.37,2013-09-08 11:20:00,
2013-09-08 14:30:00,90.1,58.8,28.11,NW,315,6.0,14.0,35,0.00,CLR,CLR,0.00,WeatherDisplay:10.37,2013-09-08 11:30:00,
2013-09-08 14:40:00,90.1,59.6,28.10,NW,315,2.0,15.0,36,0.00,CLR,CLR,0.00,WeatherDisplay:10.37,2013-09-08 11:40:00,
2013-09-08 14:50:00,90.9,58.6,28.11,NW,315,3.0,16.0,34,0.00,CLR,CLR,0.00,WeatherDisplay:10.37,2013-09-08 11:50:00,
2013-09-08 15:00:00,90.7,59.3,28.10,NW,306,3.0,17.0,35,0.00,CLR,CLR,0.00,WeatherDisplay:10.37,2013-09-08 12:00:00,
2013-09-08 15:10:00,90.6,60.8,28.10,NW,315,3.0,17.0,37,0.00,CLR,CLR,0.00,WeatherDisplay:10.37,2013-09-08 12:10:00,
2013-09-08 15:20:00,90.5,60.7,28.10,NW,315,6.0,13.0,37,0.00,CLR,CLR,0.00,WeatherDisplay:10.37,2013-09-08 12:20:00,
2013-09-08 15:30:00,90.1,59.5,28.10,NW,315,6.0,14.0,36,0.00,CLR,CLR,0.00,WeatherDisplay:10.37,2013-09-08 12:30:00,
2013-09-08 15:40:00,90.4,59.0,28.10,NW,315,3.0,13.0,35,0.00,CLR,CLR,0.00,WeatherDisplay:10.37,2013-09-08 12:40:00,
2013-09-08 15:50:00,90.1,58.0,28.10,NW,315,0.0,15.0,34,0.00,CLR,CLR,0.00,WeatherDisplay:10.37,2013-09-08 12:50:00,
2013-09-08 16:00:00,90.2,57.2,28.11,NW,315,5.0,14.0,33,0.00,CLR,CLR,0.00,WeatherDisplay:10.37,2013-09-08 13:00:00,
2013-09-08 16:10:00,88.7,53.3,28.10,NW,315,8.0,21.0,30,0.00,CLR,CLR,0.00,WeatherDisplay:10.37,2013-09-08 13:10:00,
2013-09-08 16:20:00,88.3,54.7,28.10,NW,315,7.0,21.0,32,0.00,CLR,CLR,0.00,WeatherDisplay:10.37,2013-09-08 13:20:00,
2013-09-08 16:30:00,88.7,54.2,28.10,NW,315,6.0,20.0,31,0.00,CLR,CLR,0.00,WeatherDisplay:10.37,2013-09-08 13:30:00,
2013-09-08 16:40:00,88.4,53.9,28.09,NW,315,6.0,22.0,31,0.00,CLR,CLR,0.00,WeatherDisplay:10.37,2013-09-08 13:40:00,
2013-09-08 16:50:00,89.2,54.6,28.10,West,275,5.0,22.0,31,0.00,CLR,CLR,0.00,WeatherDisplay:10.37,2013-09-08 13:50:00,
2013-09-08 17:00:00,88.8,55.1,28.10,West,263,9.0,17.0,32,0.00,CLR,CLR,0.00,WeatherDisplay:10.37,2013-09-08 14:00:00,
2013-09-08 17:10:00,88.3,53.9,28.10,West,270,8.0,17.0,31,0.00,CLR,CLR,0.00,WeatherDisplay:10.37,2013-09-08 14:10:00,
2013-09-08 17:20:00,88.2,55.4,28.10,West,270,2.0,15.0,33,0.00,CLR,CLR,0.00,WeatherDisplay:10.37,2013-09-08 14:20:00,
2013-09-08 17:30:00,88.7,55.9,28.10,West,270,1.0,13.0,33,0.00,CLR,CLR,0.00,WeatherDisplay:10.37,2013-09-08 14:30:00,
2013-09-08 17:40:00,87.8,56.0,28.10,West,270,2.0,12.0,34,0.00,CLR,CLR,0.00,WeatherDisplay:10.37,2013-09-08 14:40:00,
2013-09-08 17:50:00,88.0,56.9,28.10,WNW,291,3.0,10.0,35,0.00,CLR,CLR,0.00,WeatherDisplay:10.37,2013-09-08 14:50:00,
2013-09-08 18:00:00,87.3,56.3,28.10,NW,314,3.0,13.0,35,0.00,CLR,CLR,0.00,WeatherDisplay:10.37,2013-09-08 15:00:00,
2013-09-08 18:10:00,86.4,57.0,28.09,NW,311,5.0,12.0,37,0.00,CLR,CLR,0.00,WeatherDisplay:10.37,2013-09-08 15:10:00,
2013-09-08 18:20:00,86.7,57.3,28.10,NW,315,1.0,12.0,37,0.00,CLR,CLR,0.00,WeatherDisplay:10.37,2013-09-08 15:20:00,
2013-09-08 18:30:00,85.6,56.4,28.10,NW,315,1.0,11.0,37,0.00,CLR,CLR,0.00,WeatherDisplay:10.37,2013-09-08 15:30:00,
2013-09-08 18:40:00,84.9,55.7,28.10,NW,315,5.0,15.0,37,0.00,CLR,CLR,0.00,WeatherDisplay:10.37,2013-09-08 15:40:00,
2013-09-08 18:50:00,83.5,55.2,28.11,NW,315,7.0,18.0,38,0.00,CLR,CLR,0.00,WeatherDisplay:10.37,2013-09-08 15:50:00,
2013-09-08 19:00:00,83.3,55.0,28.10,NW,315,5.0,15.0,38,0.00,CLR,CLR,0.00,WeatherDisplay:10.37,2013-09-08 16:00:00,
2013-09-08 19:10:00,82.5,54.3,28.10,NW,315,6.0,13.0,38,0.00,CLR,CLR,0.00,WeatherDisplay:10.37,2013-09-08 16:10:00,
2013-09-08 19:20:00,81.9,54.5,28.10,NW,315,1.0,14.0,39,0.00,CLR,CLR,0.00,WeatherDisplay:10.37,2013-09-08 16:20:00,
2013-09-08 19:30:00,80.9,56.3,28.10,NW,315,2.0,11.0,43,0.00,CLR,CLR,0.00,WeatherDisplay:10.37,2013-09-08 16:30:00,
2013-09-08 19:40:00,79.5,57.5,28.10,NW,315,3.0,14.0,47,0.00,CLR,CLR,0.00,WeatherDisplay:10.37,2013-09-08 16:40:00,
2013-09-08 19:50:00,79.0,57.0,28.10,NW,315,5.0,14.0,47,0.00,CLR,CLR,0.00,WeatherDisplay:10.37,2013-09-08 16:50:00,
2013-09-08 20:00:00,78.8,54.4,28.10,NW,315,7.0,13.0,43,0.00,CLR,CLR,0.00,WeatherDisplay:10.37,2013-09-08 17:00:00,
2013-09-08 20:10:00,79.0,53.3,28.10,NW,322,8.0,20.0,41,0.00,CLR,CLR,0.00,WeatherDisplay:10.37,2013-09-08 17:10:00,
2013-09-08 20:20:00,79.0,51.2,28.11,NNW,335,8.0,23.0,38,0.00,CLR,CLR,0.00,WeatherDisplay:10.37,2013-09-08 17:20:00,
2013-09-08 20:30:00,79.0,51.2,28.12,NW,315,10.0,24.0,38,0.00,CLR,CLR,0.00,WeatherDisplay:10.37,2013-09-08 17:30:00,
2013-09-08 20:40:00,78.8,51.0,28.13,NW,315,5.0,16.0,38,0.00,CLR,CLR,0.00,WeatherDisplay:10.37,2013-09-08 17:40:00,
2013-09-08 20:50:00,78.8,51.0,28.13,NW,315,3.0,15.0,38,0.00,CLR,CLR,0.00,WeatherDisplay:10.37,2013-09-08 17:50:00,
2013-09-08 21:00:00,78.4,51.4,28.13,NW,315,6.0,13.0,39,0.00,CLR,CLR,0.00,WeatherDisplay:10.37,2013-09-08 18:00:00,
2013-09-08 21:10:00,78.4,51.4,28.14,WNW,301,6.0,13.0,39,0.00,CLR,CLR,0.00,WeatherDisplay:10.37,2013-09-08 18:10:00,
2013-09-08 21:20:00,78.3,51.3,28.14,West,270,2.0,13.0,39,0.00,CLR,CLR,0.00,WeatherDisplay:10.37,2013-09-08 18:20:00,
2013-09-08 21:30:00,78.2,50.5,28.14,West,270,2.0,13.0,38,0.00,CLR,CLR,0.00,WeatherDisplay:10.37,2013-09-08 18:30:00,
2013-09-08 21:40:00,78.1,53.1,28.14,West,270,5.0,13.0,42,0.00,CLR,CLR,0.00,WeatherDisplay:10.37,2013-09-08 18:40:00,
2013-09-08 21:50:00,78.1,53.1,28.15,West,270,3.0,12.0,42,0.00,CLR,CLR,0.00,WeatherDisplay:10.37,2013-09-08 18:50:00,
2013-09-08 22:00:00,78.1,53.1,28.15,West,270,1.0,9.0,42,0.00,CLR,CLR,0.00,WeatherDisplay:10.37,2013-09-08 19:00:00,
2013-09-08 22:10:00,77.6,52.7,28.15,West,270,1.0,10.0,42,0.00,CLR,CLR,0.00,WeatherDisplay:10.37,2013-09-08 19:10:00,
2013-09-08 22:20:00,77.5,53.3,28.15,WSW,250,1.0,13.0,43,0.00,CLR,CLR,0.00,WeatherDisplay:10.37,2013-09-08 19:20:00,
2013-09-08 22:30:00,77.5,53.3,28.15,WSW,246,8.0,15.0,43,0.00,CLR,CLR,0.00,WeatherDisplay:10.37,2013-09-08 19:30:00,
2013-09-08 22:40:00,77.5,53.3,28.15,SW,225,3.0,17.0,43,0.00,CLR,CLR,0.00,WeatherDisplay:10.37,2013-09-08 19:40:00,
2013-09-08 22:50:00,77.5,52.6,28.15,NE,45,7.0,17.0,42,0.00,CLR,CLR,0.00,WeatherDisplay:10.37,2013-09-08 19:50:00,
2013-09-08 23:00:00,77.5,52.6,28.15,NE,45,6.0,14.0,42,0.00,CLR,CLR,0.00,WeatherDisplay:10.37,2013-09-08 20:00:00,
2013-09-08 23:10:00,77.5,52.0,28.15,NE,45,6.0,13.0,41,0.00,CLR,CLR,0.00,WeatherDisplay:10.37,2013-09-08 20:10:00,
2013-09-08 23:20:00,77.5,51.3,28.16,NE,45,2.0,15.0,40,0.00,CLR,CLR,0.00,WeatherDisplay:10.37,2013-09-08 20:20:00,
2013-09-08 23:30:00,77.7,49.4,28.15,NE,45,2.0,13.0,37,0.00,CLR,CLR,0.00,WeatherDisplay:10.37,2013-09-08 20:30:00,
2013-09-08 23:40:00,77.7,49.4,28.16,NE,45,3.0,12.0,37,0.00,CLR,CLR,0.00,WeatherDisplay:10.37,2013-09-08 20:40:00,
2013-09-08 23:50:00,77.7,49.4,28.16,NE,45,1.0,10.0,37,0.00,CLR,CLR,0.00,WeatherDisplay:10.37,2013-09-08 20:50:00,